Thursday, October 19, 2017, 7:02 AM EDT
Back to Local

KRDG, Reading Regional Airport

Location: Reading, PA, United States Lat: 40.367
Local Time: 7:02 AM EDT (11:02 GMT) Lon: -75.967
Time Zone: US/Eastern Elev: 344 ft

Show me the last for .
Show Decoded

2017-10-19 05:54 METAR KRDG 190954Z 33003KT 10SM CLR 07/07 A3025 RMK AO2 SLP249 T00720072 =
2017-10-19 04:54 METAR KRDG 190854Z 00000KT 10SM CLR 07/07 A3025 RMK AO2 SLP249 T00720072 55005 =
2017-10-19 03:54 METAR KRDG 190754Z 33003KT 10SM CLR 07/07 A3025 RMK AO2 SLP249 T00720072 =
2017-10-19 02:54 METAR KRDG 190654Z 00000KT 10SM CLR 08/08 A3026 RMK AO2 SLP251 T00830078 =
2017-10-19 01:54 METAR KRDG 190554Z 00000KT 10SM CLR 09/08 A3027 RMK AO2 SLP254 T00940083 10150
                 20094 58007 =
2017-10-19 00:54 METAR KRDG 190454Z 00000KT 10SM CLR 11/09 A3028 RMK AO2 SLP256 T01060089
                 402220044 =
2017-10-18 23:54 METAR KRDG 190354Z 00000KT 10SM CLR 12/09 A3029 RMK AO2 SLP260 T01170089 =
2017-10-18 22:54 METAR KRDG 190254Z 17004KT 10SM CLR 13/09 A3029 RMK AO2 SLP262 T01330089 50003 =
2017-10-18 21:54 METAR KRDG 190154Z 00000KT 10SM CLR 13/09 A3029 RMK AO2 SLP263 T01280089 =
2017-10-18 20:54 METAR KRDG 190054Z 16004KT 10SM CLR 14/10 A3029 RMK AO2 SLP263 T01440100 =
2017-10-18 19:54 METAR KRDG 182354Z 19004KT 10SM CLR 14/09 A3028 RMK AO2 SLP260 T01440094 10222
                 20144 53007 =
2017-10-18 18:54 METAR KRDG 182254Z 00000KT 10SM CLR 18/08 A3027 RMK AO2 SLP255 T01780078 =
2017-10-18 17:54 METAR KRDG 182154Z 22005KT 10SM CLR 19/08 A3026 RMK AO2 SLP252 T01890083 =
2017-10-18 16:54 METAR KRDG 182054Z 23006KT 10SM CLR 21/09 A3026 RMK AO2 SLP252 T02110089 56013 =
2017-10-18 15:54 METAR KRDG 181954Z 25007KT 10SM CLR 22/08 A3027 RMK AO2 SLP255 T02220083 =
2017-10-18 14:54 METAR KRDG 181854Z VRB05KT 10SM CLR 22/08 A3028 RMK AO2 SLP260 T02170083 =
2017-10-18 13:54 METAR KRDG 181754Z VRB03KT 10SM CLR 21/08 A3030 RMK AO2 SLP265 T02060083 10206
                 20050 58019 =
2017-10-18 12:54 METAR KRDG 181654Z 00000KT 10SM CLR 19/08 A3033 RMK AO2 SLP276 T01940078 =
2017-10-18 11:54 METAR KRDG 181554Z 30007KT 10SM CLR 18/08 A3035 RMK AO2 SLP283 T01780078 =
2017-10-18 10:54 METAR KRDG 181454Z 30004KT 10SM CLR 16/07 A3036 RMK AO2 SLP285 T01610072 51003 =
2017-10-18 09:54 METAR KRDG 181354Z 26005KT 10SM CLR 12/07 A3036 RMK AO2 SLP286 T01220067 =
2017-10-18 08:54 METAR KRDG 181254Z 00000KT 10SM CLR 09/07 A3036 RMK AO2 SLP287 T00890067 =
2017-10-18 07:54 METAR KRDG 181154Z 00000KT 10SM CLR 05/05 A3035 RMK AO2 SLP283 T00500050 10061
                 20044 51017 =

Support USWX by starting your Amazon purchase here.